Terminal Aerodrome Forecast
Issued by NWS Shreveport, LA

Home | Current Version | Previous Version | Text Only | Print | Product List | Glossary On
Versions: 1 2 3 4 5 6 7 8 9 10 11 12 13 14 15 16 17 18 19
000
FTUS44 KSHV 281505 AAA
TAFGGG
TAF AMD
KGGG 281505Z 2815/2912 VRB05KT P6SM VCSH SCT045 BKN060
      TEMPO 2815/2817 5SM -SHRA BR SCT003 BKN045
     FM282000 07007KT P6SM VCTS BKN040CB BKN120
     FM290100 08003KT P6SM SCT045 BKN150 BKN250
     FM290600 07003KT P6SM SCT060 SCT150 BKN250=

USA.gov is the U.S. government's official web portal to all federal, state and local government web resources and services.